Time;durP1;ratioP1;P1;durP2;ratioP2;P2;SDS_P1;SDS_P2;PMS_P1;PMS_P2;Temp;Humidity;BMP_temperature;BMP_pressure;BME280_temperature;BME280_humidity;BME280_pressure;Samples;Min_cycle;Max_cycle;Signal;HPM_P1;HPM_P2
2023/10/20 00:00:34;;;;;;;3.00;0.20;;;;;;;4.62;65.88;101608.47;6154374;23;20021;-80
2023/10/20 00:03:02;;;;;;;2.75;0.20;;;;;;;4.61;65.47;101594.69;6154478;23;20022;-83
2023/10/20 00:05:28;;;;;;;0.68;0.10;;;;;;;4.64;65.73;101602.50;6153671;23;20026;-83
2023/10/20 00:07:57;;;;;;;5.95;1.10;;;;;;;4.66;65.59;101600.78;6153761;23;20550;-81
2023/10/20 00:10:24;;;;;;;2.28;0.10;;;;;;;4.60;65.50;101598.09;6152880;23;20068;-75
2023/10/20 00:12:51;;;;;;;3.30;0.20;;;;;;;4.69;65.22;101600.84;6147388;23;20096;-74
2023/10/20 00:15:17;;;;;;;2.25;0.20;;;;;;;4.70;65.04;101610.38;6148795;23;20036;-74
2023/10/20 00:17:44;;;;;;;1.85;0.10;;;;;;;4.72;65.02;101610.38;6145696;23;20780;-74
2023/10/20 00:20:12;;;;;;;2.60;0.15;;;;;;;4.71;64.95;101601.75;6147978;23;20032;-78
2023/10/20 00:22:39;;;;;;;2.38;0.13;;;;;;;4.74;64.75;101606.13;6149447;23;20555;-77
2023/10/20 00:25:11;;;;;;;0.40;0.10;;;;;;;4.70;64.53;101607.78;6148034;23;20021;-77
2023/10/20 00:27:38;;;;;;;1.88;0.10;;;;;;;4.76;64.68;101598.41;6148696;23;20017;-76
2023/10/20 00:30:07;;;;;;;1.75;0.15;;;;;;;4.77;64.52;101605.31;6147821;23;20488;-72
2023/10/20 00:32:34;;;;;;;0.65;0.20;;;;;;;4.78;64.82;101599.28;6142995;23;20575;-71
2023/10/20 00:35:03;;;;;;;1.63;0.30;;;;;;;4.78;65.37;101609.63;6146800;23;20028;-72
2023/10/20 00:37:31;;;;;;;5.82;0.77;;;;;;;4.77;65.44;101601.00;6146546;23;20431;-71
2023/10/20 00:39:57;;;;;;;1.00;0.10;;;;;;;4.78;65.66;101599.28;6148740;23;20027;-72
2023/10/20 00:42:26;;;;;;;0.40;0.10;;;;;;;4.78;65.57;101599.28;6147594;23;20128;-71
2023/10/20 00:44:53;;;;;;;0.50;0.10;;;;;;;4.76;65.84;101586.31;6148284;23;20079;-71
2023/10/20 00:47:21;;;;;;;3.25;0.30;;;;;;;4.78;65.99;101599.28;6143640;23;20032;-71
2023/10/20 00:49:48;;;;;;;2.85;0.20;;;;;;;4.77;66.10;101602.72;6148854;23;20438;-72
2023/10/20 00:52:15;;;;;;;1.98;0.20;;;;;;;4.77;66.15;101602.72;6148352;23;20022;-71
2023/10/20 00:54:44;;;;;;;4.32;0.20;;;;;;;4.76;66.32;101600.97;6142423;23;20579;-71
2023/10/20 00:57:12;;;;;;;2.97;0.43;;;;;;;4.79;66.26;101608.81;6147207;23;20034;-71
2023/10/20 00:59:41;;;;;;;2.80;0.25;;;;;;;4.78;66.47;101594.09;6145648;23;20025;-71
2023/10/20 01:02:07;;;;;;;4.60;0.50;;;;;;;4.77;66.87;101602.72;6147383;23;20021;-69
2023/10/20 01:04:35;;;;;;;3.10;0.20;;;;;;;4.76;66.64;101599.25;6145300;23;20495;-70
2023/10/20 01:07:02;;;;;;;0.70;0.20;;;;;;;4.76;67.09;101599.25;6145964;23;20033;-72
2023/10/20 01:09:29;;;;;;;3.70;0.20;;;;;;;4.77;67.31;101633.78;6144293;23;20024;-72
2023/10/20 01:11:56;;;;;;;10.32;0.50;;;;;;;4.74;67.97;101603.53;6146736;23;20021;-73
2023/10/20 01:14:23;;;;;;;5.60;0.73;;;;;;;4.71;68.46;101611.22;6142638;23;20025;-71
2023/10/20 01:16:52;;;;;;;0.52;0.20;;;;;;;4.69;68.31;101620.69;6146546;23;20546;-71
2023/10/20 01:19:19;;;;;;;4.47;0.30;;;;;;;4.65;68.70;101609.41;6144586;23;20022;-74
2023/10/20 01:21:45;;;;;;;3.60;0.20;;;;;;;4.64;69.09;101617.13;6147163;23;20025;-74
2023/10/20 01:24:14;;;;;;;6.90;0.55;;;;;;;4.64;69.19;101624.88;6147044;23;20017;-73
2023/10/20 01:26:43;;;;;;;4.07;0.30;;;;;;;4.63;69.58;101618.84;6147923;23;20515;-74
2023/10/20 01:29:12;;;;;;;0.98;0.20;;;;;;;4.53;69.38;101598.81;6148718;23;20021;-74
2023/10/20 01:31:39;;;;;;;1.88;0.20;;;;;;;4.61;70.02;101617.97;6139573;23;20021;-75
2023/10/20 01:34:06;;;;;;;3.75;0.20;;;;;;;4.62;70.05;101619.69;6141041;23;20344;-75
2023/10/20 01:36:32;;;;;;;4.07;0.30;;;;;;;4.59;70.21;101606.69;6140059;23;20089;-74
2023/10/20 01:38:59;;;;;;;3.47;0.10;;;;;;;4.61;70.35;101607.63;6138973;23;20025;-74
2023/10/20 01:41:28;;;;;;;2.35;0.30;;;;;;;4.60;70.58;101611.03;6147209;23;20830;-83
2023/10/20 01:43:55;;;;;;;4.32;0.30;;;;;;;4.59;70.75;101604.13;6152853;23;20028;-85
2023/10/20 01:46:22;;;;;;;3.22;0.30;;;;;;;4.58;70.90;101604.06;6153169;23;20032;-86
2023/10/20 01:48:49;;;;;;;3.90;0.20;;;;;;;4.48;70.80;101590.09;6154419;23;20022;-87
2023/10/20 01:51:16;;;;;;;2.42;0.20;;;;;;;4.55;71.17;101607.47;6152092;23;20471;-81
2023/10/20 01:53:43;;;;;;;2.83;0.28;;;;;;;4.54;71.29;101605.72;6152592;23;20024;-83
2023/10/20 01:56:10;;;;;;;3.55;0.40;;;;;;;4.58;71.52;101611.84;6150246;23;20021;-82
2023/10/20 01:58:38;;;;;;;4.40;0.40;;;;;;;4.58;71.81;101615.31;6152775;23;20025;-84
2023/10/20 02:01:05;;;;;;;1.23;0.30;;;;;;;4.58;71.64;101615.31;6153943;23;20349;-81
2023/10/20 02:03:32;;;;;;;2.40;0.20;;;;;;;4.59;71.68;101614.47;6153556;23;20022;-82
2023/10/20 02:05:59;;;;;;;2.28;0.20;;;;;;;4.62;71.83;101613.66;6151217;23;20048;-82
2023/10/20 02:08:26;;;;;;;2.75;0.40;;;;;;;4.63;71.83;101618.84;6152998;23;20461;-85
2023/10/20 02:10:52;;;;;;;4.03;0.20;;;;;;;4.63;71.77;101621.44;6153319;23;20805;-83
2023/10/20 02:13:19;;;;;;;7.22;0.30;;;;;;;4.64;71.70;101623.19;6152415;23;20028;-84
2023/10/20 02:15:50;;;;;;;0.93;0.13;;;;;;;4.63;72.02;101621.44;6151099;23;20095;-83
2023/10/20 02:18:17;;;;;;;0.70;0.15;;;;;;;4.64;72.05;101617.13;6145576;23;20032;-87
2023/10/20 02:20:44;;;;;;;3.85;0.25;;;;;;;4.63;72.02;101613.66;6153335;23;20032;-84
2023/10/20 02:23:11;;;;;;;3.50;0.20;;;;;;;4.65;72.07;101619.75;6156376;23;20072;-85
2023/10/20 02:25:38;;;;;;;5.90;0.30;;;;;;;4.65;71.79;101621.47;6156467;23;20021;-85
2023/10/20 02:28:07;;;;;;;1.63;0.20;;;;;;;4.66;71.77;101625.78;6154890;23;20021;-82
2023/10/20 02:30:33;;;;;;;2.28;0.20;;;;;;;4.66;71.94;101630.97;6151212;23;20028;-71
2023/10/20 02:33:03;;;;;;;1.17;0.20;;;;;;;4.68;72.12;101627.56;6137062;23;20028;-71
2023/10/20 02:35:30;;;;;;;0.93;0.20;;;;;;;4.70;71.93;101627.63;6147514;23;20100;-72
2023/10/20 02:37:57;;;;;;;2.47;0.10;;;;;;;4.72;71.63;101624.22;6149217;23;20323;-71
2023/10/20 02:40:24;;;;;;;1.98;0.20;;;;;;;4.74;71.57;101621.66;6149038;23;20349;-71
2023/10/20 02:42:51;;;;;;;2.92;0.10;;;;;;;4.74;71.25;101617.34;6144861;23;20445;-71
2023/10/20 02:45:18;;;;;;;0.60;0.10;;;;;;;4.78;71.31;101635.50;6146506;23;20437;-71
2023/10/20 02:47:44;;;;;;;2.50;0.20;;;;;;;4.79;71.21;101626.91;6149817;23;20031;-71
2023/10/20 02:50:14;;;;;;;4.72;0.20;;;;;;;4.80;71.06;101634.69;6147929;23;20032;-72
2023/10/20 02:52:41;;;;;;;0.20;0.10;;;;;;;4.83;70.89;101632.16;6147807;23;20468;-71
2023/10/20 02:55:08;;;;;;;1.08;0.40;;;;;;;4.84;70.78;101625.25;6148471;23;20465;-71
2023/10/20 02:57:36;;;;;;;3.58;0.10;;;;;;;4.86;70.75;101654.66;6149535;23;20025;-71
2023/10/20 03:00:04;;;;;;;0.85;0.10;;;;;;;4.87;70.58;101615.88;6147105;23;20021;-71
2023/10/20 03:02:31;;;;;;;0.35;0.10;;;;;;;4.88;70.30;101625.38;6146719;23;20553;-72
2023/10/20 03:04:58;;;;;;;0.73;0.10;;;;;;;4.90;70.21;101633.19;6142838;23;20660;-71
2023/10/20 03:07:27;;;;;;;1.65;0.20;;;;;;;4.90;70.02;101620.22;6146113;23;20404;-72
2023/10/20 03:09:54;;;;;;;2.08;0.10;;;;;;;4.92;69.99;101619.41;6148653;23;20076;-71
2023/10/20 03:12:21;;;;;;;1.17;0.13;;;;;;;4.93;69.90;101626.31;6146777;23;20018;-72
2023/10/20 03:14:48;;;;;;;0.73;0.10;;;;;;;4.94;70.01;101614.25;6149133;23;20022;-69
2023/10/20 03:17:16;;;;;;;0.82;0.10;;;;;;;4.96;70.02;101608.25;6147584;23;20027;-69
2023/10/20 03:19:44;;;;;;;1.30;0.10;;;;;;;4.99;69.91;101619.53;6148369;23;20072;-69
2023/10/20 03:22:12;;;;;;;1.25;0.15;;;;;;;5.00;70.07;101622.13;6145407;23;20076;-71
2023/10/20 03:24:41;;;;;;;1.25;0.20;;;;;;;5.02;70.12;101624.75;6146215;23;20025;-71
2023/10/20 03:27:08;;;;;;;2.75;0.50;;;;;;;5.03;69.90;101632.53;6147035;23;20101;-72
2023/10/20 03:29:36;;;;;;;0.43;0.10;;;;;;;5.04;70.45;101639.47;6147785;23;20061;-72
2023/10/20 03:32:03;;;;;;;3.13;0.10;;;;;;;5.03;70.43;101632.53;6147235;23;20030;-71
2023/10/20 03:34:32;;;;;;;5.18;0.15;;;;;;;5.04;71.10;101623.94;6147373;23;20022;-72
2023/10/20 03:37:00;;;;;;;1.17;0.20;;;;;;;5.03;71.18;101622.16;6145385;23;20021;-72
2023/10/20 03:39:27;;;;;;;2.92;0.20;;;;;;;5.03;71.01;101619.59;6148708;23;20108;-81
2023/10/20 03:41:55;;;;;;;2.00;0.90;;;;;;;5.03;71.08;101611.81;6153311;23;20468;-81
2023/10/20 03:44:22;;;;;;;0.55;0.10;;;;;;;5.03;71.03;101624.75;6155212;23;20022;-80
2023/10/20 03:46:49;;;;;;;5.18;0.43;;;;;;;5.03;71.27;101622.16;6152254;23;20022;-80
2023/10/20 03:49:18;;;;;;;3.58;0.20;;;;;;;5.04;71.18;101629.13;6154463;23;20096;-80
2023/10/20 03:51:49;;;;;;;2.50;0.10;;;;;;;5.05;71.38;101627.41;6153060;23;20025;-83
2023/10/20 03:54:16;;;;;;;3.17;0.20;;;;;;;5.06;71.28;101631.72;6153617;23;20021;-80
2023/10/20 03:56:43;;;;;;;5.45;0.20;;;;;;;5.08;71.60;101632.63;6151835;23;20408;-80
2023/10/20 03:59:13;;;;;;;2.28;0.32;;;;;;;5.08;71.43;101654.22;6153837;23;20028;-80
2023/10/20 04:01:41;;;;;;;3.63;0.30;;;;;;;5.05;71.25;101638.63;6149261;23;20097;-74
2023/10/20 04:04:09;;;;;;;2.33;0.20;;;;;;;5.08;71.15;101641.25;6147572;23;20017;-74
2023/10/20 04:06:37;;;;;;;0.50;0.20;;;;;;;5.10;71.02;101651.66;6147881;23;20348;-74
2023/10/20 04:09:08;;;;;;;0.28;0.20;;;;;;;5.10;71.28;101647.34;6148595;23;20030;-71
2023/10/20 04:11:35;;;;;;;1.55;0.30;;;;;;;5.12;71.31;101655.13;6147818;23;20028;-72
2023/10/20 04:14:05;;;;;;;4.22;0.20;;;;;;;5.12;71.11;101647.34;6146496;23;20021;-72
2023/10/20 04:16:39;;;;;;;3.00;0.30;;;;;;;5.11;70.96;101650.81;6148680;23;20100;-75
2023/10/20 04:19:06;;;;;;;1.60;0.20;;;;;;;5.13;71.03;101641.34;6147936;23;20531;-73
2023/10/20 04:21:35;;;;;;;0.22;0.17;;;;;;;5.12;70.58;101645.66;6148003;23;20453;-74
2023/10/20 04:24:02;;;;;;;3.83;0.30;;;;;;;5.12;70.71;101647.34;6146374;23;20377;-73
2023/10/20 04:26:31;;;;;;;4.63;0.40;;;;;;;5.12;70.58;101642.19;6149025;23;20021;-75
2023/10/20 04:29:08;;;;;;;1.52;0.30;;;;;;;5.14;70.52;101643.09;6145630;23;20026;-75
2023/10/20 04:43:04;;;;;;;2.28;0.20;;;;;;;5.12;70.21;101670.66;6148009;23;20714;-74
2023/10/20 04:51:28;;;;;;;5.88;0.20;;;;;;;5.08;70.73;101685.28;6152946;23;20018;-85
2023/10/20 04:53:54;;;;;;;1.65;0.20;;;;;;;5.07;71.08;101670.59;6153812;23;20021;-84
2023/10/20 04:56:36;;;;;;;0.75;0.10;;;;;;;5.07;71.21;101678.38;6153420;23;20025;-85
2023/10/20 04:59:05;;;;;;;1.05;0.20;;;;;;;5.07;70.97;101696.50;6153605;23;20401;-79
2023/10/20 05:01:41;;;;;;;2.20;0.85;;;;;;;5.01;71.24;101679.94;6153761;23;20018;-80
2023/10/20 05:04:15;;;;;;;0.70;0.10;;;;;;;4.99;71.02;101687.72;6153451;23;20440;-84
2023/10/20 05:06:44;;;;;;;3.40;0.10;;;;;;;4.88;71.32;101669.38;6152704;23;20528;-85
2023/10/20 05:09:15;;;;;;;3.22;0.20;;;;;;;5.02;71.40;101692.94;6153927;23;20022;-87
2023/10/20 05:11:42;;;;;;;2.83;1.13;;;;;;;5.03;71.27;101694.69;6153580;23;20021;-84
2023/10/20 05:14:09;;;;;;;1.02;0.20;;;;;;;5.04;71.65;101686.09;6154916;23;20032;-86
2023/10/20 05:16:36;;;;;;;0.93;0.20;;;;;;;5.01;71.59;101680.84;6154420;23;20378;-83
2023/10/20 05:19:21;;;;;;;1.70;0.10;;;;;;;5.04;71.62;101686.09;6154261;23;20018;-85
2023/10/20 05:21:48;;;;;;;1.88;0.20;;;;;;;5.03;71.35;101689.50;6152826;23;20022;-85
2023/10/20 05:24:15;;;;;;;3.30;0.35;;;;;;;5.02;71.45;101692.94;6154114;23;20022;-85
2023/10/20 05:26:46;;;;;;;0.28;0.15;;;;;;;5.02;71.46;101692.06;6153694;23;20524;-84
2023/10/20 05:29:14;;;;;;;0.10;0.10;;;;;;;5.01;70.86;101690.31;6155033;23;20025;-85
2023/10/20 05:31:41;;;;;;;0.75;0.30;;;;;;;5.00;70.98;101693.75;6152285;23;20080;-85
2023/10/20 05:34:09;;;;;;;1.17;0.40;;;;;;;4.91;70.72;101689.28;6153761;23;20021;-85
2023/10/20 05:36:37;;;;;;;0.38;0.13;;;;;;;4.97;70.75;101700.63;6152958;23;20072;-84
2023/10/20 05:39:04;;;;;;;0.13;0.10;;;;;;;4.99;70.85;101700.66;6153636;23;20025;-86
2023/10/20 05:41:31;;;;;;;2.30;0.10;;;;;;;4.99;70.65;101704.97;6152415;23;20029;-84
2023/10/20 05:43:58;;;;;;;2.88;0.25;;;;;;;4.99;70.75;101708.44;6153431;23;20021;-83
2023/10/20 05:46:25;;;;;;;1.35;0.20;;;;;;;4.99;70.82;101708.44;6154265;23;20027;-83
2023/10/20 05:48:52;;;;;;;0.70;0.30;;;;;;;5.00;70.91;101704.97;6127605;23;20376;-84
2023/10/20 05:51:19;;;;;;;1.38;0.20;;;;;;;5.01;70.71;101719.69;6154127;23;20054;-84
2023/10/20 05:53:47;;;;;;;8.07;0.15;;;;;;;5.03;70.50;101711.94;6154707;23;20772;-85
2023/10/20 05:56:14;;;;;;;2.47;0.30;;;;;;;5.02;70.35;101710.19;6155877;23;20026;-83
2023/10/20 05:58:41;;;;;;;1.85;0.10;;;;;;;5.04;70.55;101706.81;6153215;23;20039;-86
2023/10/20 06:01:09;;;;;;;1.25;0.20;;;;;;;5.04;70.27;101711.97;6152376;23;20021;-75
2023/10/20 06:03:36;;;;;;;2.20;0.20;;;;;;;5.05;70.78;101721.47;6145826;23;20396;-75
2023/10/20 06:06:04;;;;;;;1.42;0.10;;;;;;;5.07;70.76;101722.41;6150462;23;20026;-77
2023/10/20 06:08:34;;;;;;;0.75;0.15;;;;;;;5.11;70.48;101725.91;6146909;23;20022;-75
2023/10/20 06:11:04;;;;;;;4.40;0.30;;;;;;;5.12;70.76;101723.38;6151097;23;20022;-75
2023/10/20 06:13:32;;;;;;;3.03;0.55;;;;;;;5.13;70.44;101717.31;6147700;23;20028;-77
2023/10/20 06:16:06;;;;;;;0.60;0.10;;;;;;;5.15;70.49;101719.94;6149542;23;20017;-75
2023/10/20 06:18:33;;;;;;;0.50;0.10;;;;;;;5.14;69.88;101719.06;6147916;23;20108;-76
2023/10/20 06:21:00;;;;;;;1.52;0.20;;;;;;;5.17;69.90;101726.88;6152363;23;20029;-76
2023/10/20 06:23:27;;;;;;;1.85;0.40;;;;;;;5.18;69.92;101715.72;6149769;23;20017;-78
2023/10/20 06:25:53;;;;;;;0.70;0.20;;;;;;;5.18;69.92;101715.72;6152426;23;20100;-78
2023/10/20 06:28:22;;;;;;;1.35;0.20;;;;;;;5.22;69.71;101715.75;6153495;23;20021;-77
2023/10/20 06:30:50;;;;;;;4.95;0.40;;;;;;;5.23;69.35;101714.91;6150558;23;20051;-76
2023/10/20 06:33:20;;;;;;;0.77;0.20;;;;;;;5.22;69.21;101710.56;6153276;23;20064;-78
2023/10/20 06:35:58;;;;;;;1.33;0.20;;;;;;;5.22;68.53;101715.75;6151856;23;20036;-78
2023/10/20 06:38:30;;;;;;;0.75;0.20;;;;;;;5.22;68.63;101716.63;6152812;23;20033;-78
2023/10/20 06:40:57;;;;;;;0.20;0.10;;;;;;;5.19;68.27;101722.63;6153561;23;20112;-78
2023/10/20 06:43:26;;;;;;;1.42;0.32;;;;;;;5.23;68.07;101713.19;6148851;23;20028;-77
2023/10/20 06:45:56;;;;;;;0.90;0.20;;;;;;;5.22;68.24;101724.41;6154194;23;20024;-77
2023/10/20 06:48:23;;;;;;;1.00;0.20;;;;;;;5.23;68.05;101717.50;6152908;23;20022;-77
2023/10/20 06:50:50;;;;;;;3.55;0.20;;;;;;;5.24;68.03;101732.22;6152921;23;20022;-78
2023/10/20 06:53:17;;;;;;;1.15;0.10;;;;;;;5.24;68.06;101732.22;6149907;23;20029;-72
2023/10/20 06:55:44;;;;;;;1.58;0.20;;;;;;;5.27;68.11;101729.69;6148790;23;20449;-73
2023/10/20 06:58:11;;;;;;;1.33;0.20;;;;;;;5.27;68.12;101732.28;6152959;23;20024;-83
2023/10/20 07:00:39;;;;;;;1.40;0.20;;;;;;;5.25;67.82;101736.53;6151280;23;20056;-77
2023/10/20 07:03:06;;;;;;;0.30;0.10;;;;;;;5.30;67.95;101745.28;6152108;23;20501;-80
2023/10/20 07:05:37;;;;;;;2.10;0.22;;;;;;;5.30;67.92;101745.28;6152124;23;20024;-79
2023/10/20 07:08:04;;;;;;;0.45;0.10;;;;;;;5.31;67.91;101745.28;6154282;23;20317;-80
2023/10/20 07:10:34;;;;;;;2.25;0.20;;;;;;;5.33;67.80;101742.75;6153161;23;20022;-77
2023/10/20 07:13:01;;;;;;;2.15;0.10;;;;;;;5.34;67.73;101747.06;6151307;23;20027;-78
2023/10/20 07:15:28;;;;;;;4.75;0.25;;;;;;;5.33;67.72;101742.75;6152085;23;20021;-77
2023/10/20 07:17:56;;;;;;;3.70;0.30;;;;;;;5.34;68.22;101747.06;6152163;23;20017;-81
2023/10/20 07:20:24;;;;;;;0.47;0.40;;;;;;;5.38;68.22;101748.88;6155277;23;20027;-83
2023/10/20 07:22:51;;;;;;;0.40;0.30;;;;;;;5.37;67.93;101747.97;6153488;23;20730;-82
2023/10/20 07:25:19;;;;;;;2.78;0.10;;;;;;;5.38;67.82;101767.03;6155070;23;20017;-83
2023/10/20 07:27:46;;;;;;;7.95;0.20;;;;;;;5.40;67.94;101773.09;6153671;23;20476;-83
2023/10/20 07:30:13;;;;;;;3.92;0.13;;;;;;;5.40;67.96;101773.09;6155430;23;20104;-77
2023/10/20 07:32:41;;;;;;;0.60;0.10;;;;;;;5.43;67.90;101770.53;6152318;23;20021;-78
2023/10/20 07:35:11;;;;;;;0.93;0.20;;;;;;;5.45;67.87;101752.44;6151735;23;20022;-78
2023/10/20 07:37:38;;;;;;;2.53;0.77;;;;;;;5.46;67.90;101757.66;6151845;23;20048;-79
2023/10/20 07:40:07;;;;;;;0.43;0.10;;;;;;;5.47;67.70;101762.00;6153583;23;20021;-78
2023/10/20 07:42:34;;;;;;;0.45;0.00;;;;;;;5.47;68.17;101780.16;6151264;23;20022;-78
2023/10/20 07:45:01;;;;;;;1.05;0.10;;;;;;;5.49;67.92;101772.38;6153207;23;20024;-78
2023/10/20 07:47:29;;;;;;;1.05;0.10;;;;;;;5.49;67.90;101781.03;6151150;23;20097;-78
2023/10/20 07:49:57;;;;;;;0.57;0.10;;;;;;;5.50;67.96;101780.19;6153071;23;20021;-78
2023/10/20 07:52:26;;;;;;;1.02;0.10;;;;;;;5.51;68.39;101784.53;6152965;23;20028;-79
2023/10/20 07:54:53;;;;;;;4.13;0.20;;;;;;;5.48;68.83;101770.66;6153215;23;20472;-78
2023/10/20 07:57:20;;;;;;;2.17;0.10;;;;;;;5.54;69.30;101789.75;6152176;23;20099;-78
2023/10/20 07:59:47;;;;;;;1.38;0.20;;;;;;;5.54;69.30;101801.84;6153044;23;20021;-78
2023/10/20 08:02:14;;;;;;;1.75;0.10;;;;;;;5.52;69.83;101794.06;6151452;23;20018;-80
2023/10/20 08:04:41;;;;;;;1.35;0.10;;;;;;;5.52;70.27;101796.66;6153045;23;20024;-80
2023/10/20 08:07:09;;;;;;;2.53;0.10;;;;;;;5.50;70.47;101790.56;6152713;23;20024;-77
2023/10/20 08:09:38;;;;;;;0.30;0.10;;;;;;;5.53;70.68;101793.22;6149579;23;20022;-75
2023/10/20 08:12:05;;;;;;;0.35;0.00;;;;;;;5.54;70.82;101794.94;6148778;23;20364;-75
2023/10/20 08:14:33;;;;;;;2.20;0.10;;;;;;;5.53;70.49;101785.44;6150054;23;20041;-77
2023/10/20 08:17:03;;;;;;;1.77;0.00;;;;;;;5.55;70.46;101799.31;6148033;23;20025;-76
2023/10/20 08:19:30;;;;;;;0.85;0.03;;;;;;;5.57;70.67;101791.53;6147992;23;20025;-76
2023/10/20 08:21:59;;;;;;;1.95;0.10;;;;;;;5.56;70.59;101788.06;6149747;23;20018;-83
2023/10/20 08:24:26;;;;;;;0.73;0.10;;;;;;;5.57;71.18;101787.22;6137934;23;20017;-81
2023/10/20 08:26:54;;;;;;;2.00;0.10;;;;;;;5.59;71.12;101792.44;6152464;23;20029;-77
2023/10/20 08:29:21;;;;;;;2.83;0.20;;;;;;;5.59;70.91;101785.53;6152007;23;20029;-78
2023/10/20 08:31:48;;;;;;;3.17;0.10;;;;;;;5.60;70.64;101791.59;6150232;23;20025;-78
2023/10/20 08:34:15;;;;;;;1.48;0.10;;;;;;;5.60;70.56;101808.00;6151255;23;20017;-78
2023/10/20 08:36:42;;;;;;;1.92;0.10;;;;;;;5.55;70.62;101808.78;6153014;23;20021;-78
2023/10/20 08:39:14;;;;;;;2.20;0.25;;;;;;;5.55;70.54;101814.84;6152083;23;20166;-78
2023/10/20 08:41:43;;;;;;;2.70;0.10;;;;;;;5.53;70.73;101829.50;6153486;23;20101;-81
2023/10/20 08:44:12;;;;;;;0.73;0.00;;;;;;;5.50;70.77;101837.22;6139766;23;20076;-81
2023/10/20 08:46:40;;;;;;;4.00;0.10;;;;;;;5.46;70.47;101829.34;6153117;23;20113;-80
2023/10/20 08:49:07;;;;;;;4.47;0.00;;;;;;;5.45;70.58;101827.59;6153791;23;20060;-78
2023/10/20 08:51:34;;;;;;;0.10;0.00;;;;;;;5.41;70.64;101831.84;6153202;23;20022;-80
2023/10/20 08:54:02;;;;;;;0.40;0.00;;;;;;;5.35;70.70;101821.34;6152677;23;20024;-81
2023/10/20 08:56:29;;;;;;;0.75;0.00;;;;;;;5.39;71.00;101836.13;6151543;23;20449;-81
2023/10/20 08:58:56;;;;;;;1.38;0.00;;;;;;;5.37;70.67;101836.09;6153965;23;20028;-81
2023/10/20 09:01:24;;;;;;;0.00;0.00;;;;;;;5.38;70.86;101844.75;6154674;23;20022;-81
2023/10/20 09:03:52;;;;;;;0.85;0.00;;;;;;;5.36;70.93;101834.34;6151961;23;20163;-80
2023/10/20 09:06:19;;;;;;;0.00;0.00;;;;;;;5.36;70.92;101841.25;6151881;23;20040;-77
2023/10/20 09:08:49;;;;;;;5.05;2.30;;;;;;;5.32;70.68;101834.25;6150647;23;20025;-79
2023/10/20 09:11:18;;;;;;;12.70;4.68;;;;;;;5.30;71.09;101835.94;6152512;23;20025;-78
2023/10/20 09:13:45;;;;;;;0.50;0.00;;;;;;;5.28;70.70;101829.84;6152681;23;20060;-80
2023/10/20 09:16:13;;;;;;;2.78;0.00;;;;;;;5.25;70.98;101834.97;6152613;23;20549;-79
2023/10/20 09:18:47;;;;;;;0.75;0.00;;;;;;;5.23;71.17;101836.66;6152205;23;20021;-78
2023/10/20 09:21:15;;;;;;;0.17;0.00;;;;;;;5.22;71.09;101827.16;6152158;23;20097;-78
2023/10/20 09:23:53;;;;;;;0.10;0.00;;;;;;;5.21;70.97;101833.16;6150952;23;20433;-79
2023/10/20 09:26:21;;;;;;;2.25;0.00;;;;;;;5.21;71.01;101833.16;6153371;23;20551;-79
2023/10/20 09:28:49;;;;;;;0.70;0.00;;;;;;;5.23;71.23;101826.28;6144936;23;20400;-79
2023/10/20 09:31:16;;;;;;;1.55;0.00;;;;;;;5.22;71.19;101827.16;6149529;23;20021;-77
2023/10/20 09:33:45;;;;;;;0.30;0.10;;;;;;;5.22;71.22;101815.06;6150491;23;20018;-78
2023/10/20 09:36:12;;;;;;;0.68;0.43;;;;;;;5.22;71.46;101816.78;6150794;23;20402;-78
2023/10/20 09:38:39;;;;;;;1.35;0.10;;;;;;;5.18;71.96;101810.69;6149292;23;20025;-77
2023/10/20 09:41:11;;;;;;;1.38;0.10;;;;;;;5.21;71.46;101812.41;6152547;23;20025;-77
2023/10/20 09:43:41;;;;;;;1.95;0.10;;;;;;;5.22;71.75;101809.00;6148928;23;20021;-77
2023/10/20 09:46:18;;;;;;;0.30;0.10;;;;;;;5.23;71.71;101806.44;6151358;23;20021;-78
2023/10/20 09:48:49;;;;;;;1.13;0.20;;;;;;;5.24;71.58;101802.16;6151786;23;20028;-78
2023/10/20 09:51:17;;;;;;;9.15;0.43;;;;;;;5.22;71.90;101788.28;6149026;23;20022;-74
2023/10/20 09:53:45;;;;;;;0.52;0.20;;;;;;;5.23;71.97;101801.25;6147989;23;20537;-73
2023/10/20 09:56:13;;;;;;;26.92;1.33;;;;;;;5.23;72.07;101802.97;6148294;23;20025;-74
2023/10/20 09:58:42;;;;;;;2.92;0.20;;;;;;;5.24;72.16;101802.16;6147866;23;20126;-74
2023/10/20 10:01:09;;;;;;;3.83;0.17;;;;;;;5.25;71.85;101794.41;6149188;23;20037;-73
2023/10/20 10:03:40;;;;;;;1.73;0.20;;;;;;;5.26;71.67;101795.25;6145970;23;20026;-74
2023/10/20 10:06:15;;;;;;;1.00;0.90;;;;;;;5.27;71.56;101778.91;6147835;23;20049;-74
2023/10/20 10:08:43;;;;;;;;;;;;;;;5.27;71.44;101794.44;6148420;23;20084;-73
2023/10/20 10:11:20;;;;;;;3.13;0.63;;;;;;;5.27;71.47;101797.91;6146509;23;20331;-73
2023/10/20 10:13:53;;;;;;;1.20;0.10;;;;;;;5.27;70.87;101794.44;6146714;23;20021;-73
2023/10/20 10:16:22;;;;;;;1.88;0.10;;;;;;;5.27;70.41;101791.84;6148573;23;20025;-74
2023/10/20 10:18:49;;;;;;;0.60;0.20;;;;;;;5.29;70.50;101797.91;6147229;23;20021;-74
2023/10/20 10:21:26;;;;;;;2.75;0.20;;;;;;;5.28;70.46;101794.44;6089483;23;20027;-74
2023/10/20 10:24:15;;;;;;;0.80;0.20;;;;;;;5.32;70.55;101791.09;6087986;23;20030;-74
2023/10/20 10:26:52;;;;;;;0.20;0.00;;;;;;;5.34;70.25;101804.06;6087673;23;20407;-77
2023/10/20 10:29:19;;;;;;;4.50;0.20;;;;;;;5.35;69.95;101791.16;6088920;23;20028;-73
2023/10/20 10:31:47;;;;;;;4.07;0.10;;;;;;;5.38;70.26;101798.13;6088473;23;20026;-73
2023/10/20 10:34:14;;;;;;;1.98;0.10;;;;;;;5.39;70.15;101792.06;6088918;23;20022;-70
2023/10/20 10:36:47;;;;;;;3.13;0.20;;;;;;;5.43;69.98;101804.22;6086172;23;20029;-71
2023/10/20 10:39:27;;;;;;;6.63;0.40;;;;;;;5.47;69.93;101798.28;6088302;23;20029;-72
2023/10/20 10:41:54;;;;;;;2.47;0.10;;;;;;;5.49;69.59;101787.94;6090927;23;20022;-76
2023/10/20 10:44:22;;;;;;;3.22;0.20;;;;;;;5.50;69.44;101790.56;6092626;23;20555;-76
2023/10/20 10:46:51;;;;;;;2.47;0.10;;;;;;;5.52;69.01;101795.75;6091726;23;20023;-76
2023/10/20 10:49:18;;;;;;;3.40;0.20;;;;;;;5.52;68.80;101804.44;6091694;23;20030;-77
2023/10/20 10:51:48;;;;;;;2.25;0.30;;;;;;;5.51;68.53;101807.84;6090206;23;20022;-76
2023/10/20 10:54:15;;;;;;;4.00;0.30;;;;;;;5.50;68.13;101806.13;6090166;23;20025;-76
2023/10/20 10:56:42;;;;;;;2.05;0.20;;;;;;;5.49;68.16;101796.56;6090056;23;20022;-75
2023/10/20 10:59:11;;;;;;;34.00;2.70;;;;;;;5.53;68.09;101811.34;6090234;23;20035;-76
2023/10/20 11:01:40;;;;;;;2.22;0.20;;;;;;;5.56;67.80;101797.56;6095790;23;20330;-81
2023/10/20 11:04:09;;;;;;;1.90;0.10;;;;;;;5.53;67.85;101805.31;6095137;23;20403;-81
2023/10/20 11:06:38;;;;;;;5.07;0.10;;;;;;;5.57;67.84;101807.09;6095333;23;20019;-80
2023/10/20 11:09:10;;;;;;;1.20;0.13;;;;;;;5.54;67.30;101815.69;6096039;23;20018;-81
2023/10/20 11:11:42;;;;;;;3.30;0.20;;;;;;;5.58;66.97;101809.72;6095770;23;20473;-82
2023/10/20 11:14:11;;;;;;;5.93;0.25;;;;;;;5.59;66.88;101808.88;6096122;23;20054;-80
2023/10/20 11:16:38;;;;;;;5.43;0.30;;;;;;;5.59;67.33;101811.47;6095105;23;20078;-81
2023/10/20 11:19:05;;;;;;;6.22;0.10;;;;;;;5.61;67.17;101809.78;6101952;23;20018;-81
2023/10/20 11:21:44;;;;;;;1.27;0.10;;;;;;;5.62;66.99;101811.50;6153216;23;20025;-81
2023/10/20 11:24:13;;;;;;;2.83;0.20;;;;;;;5.62;67.08;101806.34;6155642;23;20060;-82
2023/10/20 11:26:39;;;;;;;1.38;0.20;;;;;;;5.63;67.23;101797.72;6155441;23;20022;-81
2023/10/20 11:29:08;;;;;;;2.00;0.10;;;;;;;5.66;67.10;101801.19;6155440;23;20018;-81
2023/10/20 11:31:37;;;;;;;0.75;0.10;;;;;;;5.67;67.50;101806.44;6153776;23;20068;-82
2023/10/20 11:34:04;;;;;;;2.47;0.20;;;;;;;5.69;67.57;101801.25;6153462;23;20048;-81
2023/10/20 11:36:31;;;;;;;4.53;0.20;;;;;;;5.71;67.44;101790.06;6155038;23;20024;-82
2023/10/20 11:38:58;;;;;;;3.55;0.20;;;;;;;5.73;67.59;101788.38;6154670;23;20017;-82
2023/10/20 11:41:26;;;;;;;0.93;0.10;;;;;;;5.74;67.58;101795.31;6153784;23;20028;-82
2023/10/20 11:43:53;;;;;;;1.67;0.10;;;;;;;5.78;67.29;101804.03;6155857;23;20021;-83
2023/10/20 11:46:20;;;;;;;0.32;0.10;;;;;;;5.80;67.33;101804.91;6135870;23;20092;-81
2023/10/20 11:48:47;;;;;;;2.38;0.30;;;;;;;5.81;66.88;101804.09;6154652;23;20073;-82
2023/10/20 11:51:14;;;;;;;3.20;0.20;;;;;;;5.82;67.01;101801.50;6154093;23;20018;-84
2023/10/20 11:53:41;;;;;;;9.80;0.30;;;;;;;5.83;67.06;101805.88;6154530;23;20104;-84
2023/10/20 11:56:09;;;;;;;3.10;0.30;;;;;;;5.85;67.20;101811.91;6154175;23;20028;-84